sensor_id;sensor_type;location;lat;lon;timestamp;pressure;altitude;pressure_sealevel;temperature;humidity
47716;BME280;33476;50.984;3.538;2023-03-23T00:00:54;100261.34;;;14.62;67.45
47716;BME280;33476;50.984;3.538;2023-03-23T00:03:21;100258.13;;;14.58;67.66
47716;BME280;33476;50.984;3.538;2023-03-23T00:05:48;100271.38;;;14.57;67.81
47716;BME280;33476;50.984;3.538;2023-03-23T00:08:19;100275.16;;;14.53;67.95
47716;BME280;33476;50.984;3.538;2023-03-23T00:10:50;100290.81;;;14.54;67.96
47716;BME280;33476;50.984;3.538;2023-03-23T00:13:23;100262.75;;;14.55;68.21
47716;BME280;33476;50.984;3.538;2023-03-23T00:15:48;100268.13;;;14.53;68.41
47716;BME280;33476;50.984;3.538;2023-03-23T00:18:15;100270.28;;;14.48;68.64
47716;BME280;33476;50.984;3.538;2023-03-23T00:20:55;100273.81;;;14.47;68.57
47716;BME280;33476;50.984;3.538;2023-03-23T00:23:23;100285.69;;;14.53;68.35
47716;BME280;33476;50.984;3.538;2023-03-23T00:25:55;100287.47;;;14.52;68.33
47716;BME280;33476;50.984;3.538;2023-03-23T00:28:25;100256.78;;;14.53;68.39
47716;BME280;33476;50.984;3.538;2023-03-23T00:31:09;100249.13;;;14.50;68.21
47716;BME280;33476;50.984;3.538;2023-03-23T00:33:36;100288.19;;;14.54;68.22
47716;BME280;33476;50.984;3.538;2023-03-23T00:36:09;100268.13;;;14.53;68.01
47716;BME280;33476;50.984;3.538;2023-03-23T00:38:36;100276.00;;;14.53;67.95
47716;BME280;33476;50.984;3.538;2023-03-23T00:41:02;100242.56;;;14.55;67.77
47716;BME280;33476;50.984;3.538;2023-03-23T00:43:29;100263.59;;;14.55;67.77
47716;BME280;33476;50.984;3.538;2023-03-23T00:45:56;100262.88;;;14.53;67.67
47716;BME280;33476;50.984;3.538;2023-03-23T00:48:23;100266.44;;;14.52;67.90
47716;BME280;33476;50.984;3.538;2023-03-23T00:50:50;100257.84;;;14.50;67.89
47716;BME280;33476;50.984;3.538;2023-03-23T00:53:17;100250.09;;;14.49;67.76
47716;BME280;33476;50.984;3.538;2023-03-23T00:55:46;100249.97;;;14.50;67.83
47716;BME280;33476;50.984;3.538;2023-03-23T00:58:13;100256.19;;;14.49;68.03
47716;BME280;33476;50.984;3.538;2023-03-23T01:00:39;100255.09;;;14.52;67.96
47716;BME280;33476;50.984;3.538;2023-03-23T01:03:06;100256.66;;;14.54;67.97
47716;BME280;33476;50.984;3.538;2023-03-23T01:05:36;100250.56;;;14.54;67.85
47716;BME280;33476;50.984;3.538;2023-03-23T01:08:02;100252.25;;;14.55;67.70
47716;BME280;33476;50.984;3.538;2023-03-23T01:10:28;100235.63;;;14.54;67.94
47716;BME280;33476;50.984;3.538;2023-03-23T01:12:54;100225.47;;;14.50;68.39
47716;BME280;33476;50.984;3.538;2023-03-23T01:15:20;100222.84;;;14.50;68.35
47716;BME280;33476;50.984;3.538;2023-03-23T01:17:46;100237.16;;;14.46;68.44
47716;BME280;33476;50.984;3.538;2023-03-23T01:20:12;100220.63;;;14.44;68.50
47716;BME280;33476;50.984;3.538;2023-03-23T01:22:40;100210.13;;;14.44;68.71
47716;BME280;33476;50.984;3.538;2023-03-23T01:25:06;100216.00;;;14.47;68.52
47716;BME280;33476;50.984;3.538;2023-03-23T01:27:31;100221.25;;;14.47;68.42
47716;BME280;33476;50.984;3.538;2023-03-23T01:29:57;100217.59;;;14.50;68.31
47716;BME280;33476;50.984;3.538;2023-03-23T01:32:22;100237.78;;;14.49;68.06
47716;BME280;33476;50.984;3.538;2023-03-23T01:34:47;100232.53;;;14.49;68.18
47716;BME280;33476;50.984;3.538;2023-03-23T01:37:13;100220.44;;;14.47;68.29
47716;BME280;33476;50.984;3.538;2023-03-23T01:39:41;100236.94;;;14.49;67.95
47716;BME280;33476;50.984;3.538;2023-03-23T01:42:08;100230.00;;;14.48;68.13
47716;BME280;33476;50.984;3.538;2023-03-23T01:46:59;100242.19;;;14.49;67.88
47716;BME280;33476;50.984;3.538;2023-03-23T01:49:28;100233.47;;;14.48;68.02
47716;BME280;33476;50.984;3.538;2023-03-23T01:52:01;100251.22;;;14.45;67.85
47716;BME280;33476;50.984;3.538;2023-03-23T01:54:28;100233.25;;;14.51;67.53
47716;BME280;33476;50.984;3.538;2023-03-23T01:57:04;100243.25;;;14.46;67.78
47716;BME280;33476;50.984;3.538;2023-03-23T01:59:31;100236.94;;;14.49;67.69
47716;BME280;33476;50.984;3.538;2023-03-23T02:01:58;100237.53;;;14.52;67.56
47716;BME280;33476;50.984;3.538;2023-03-23T02:04:26;100245.66;;;14.49;67.61
47716;BME280;33476;50.984;3.538;2023-03-23T02:06:52;100246.25;;;14.53;67.52
47716;BME280;33476;50.984;3.538;2023-03-23T02:09:19;100245.19;;;14.55;67.45
47716;BME280;33476;50.984;3.538;2023-03-23T02:11:46;100251.28;;;14.56;67.47
47716;BME280;33476;50.984;3.538;2023-03-23T02:14:14;100250.38;;;14.57;67.19
47716;BME280;33476;50.984;3.538;2023-03-23T02:16:48;100243.75;;;14.51;67.24
47716;BME280;33476;50.984;3.538;2023-03-23T02:22:22;100234.41;;;14.47;66.95
47716;BME280;33476;50.984;3.538;2023-03-23T02:35:51;100233.00;;;14.54;66.38
47716;BME280;33476;50.984;3.538;2023-03-23T02:38:21;100233.25;;;14.51;66.22
47716;BME280;33476;50.984;3.538;2023-03-23T02:40:50;100235.75;;;14.53;66.38
47716;BME280;33476;50.984;3.538;2023-03-23T02:43:21;100236.81;;;14.50;66.50
47716;BME280;33476;50.984;3.538;2023-03-23T02:45:48;100228.50;;;14.56;66.26
47716;BME280;33476;50.984;3.538;2023-03-23T02:48:17;100241.84;;;14.53;66.09
47716;BME280;33476;50.984;3.538;2023-03-23T02:50:47;100239.84;;;14.57;65.93
47716;BME280;33476;50.984;3.538;2023-03-23T02:53:16;100235.53;;;14.56;65.88
47716;BME280;33476;50.984;3.538;2023-03-23T02:55:44;100234.91;;;14.52;66.33
47716;BME280;33476;50.984;3.538;2023-03-23T02:58:11;100229.91;;;14.49;66.25
47716;BME280;33476;50.984;3.538;2023-03-23T03:00:38;100230.75;;;14.50;66.21
47716;BME280;33476;50.984;3.538;2023-03-23T03:03:05;100228.22;;;14.48;66.31
47716;BME280;33476;50.984;3.538;2023-03-23T03:05:38;100216.75;;;14.49;66.40
47716;BME280;33476;50.984;3.538;2023-03-23T03:16:07;100231.16;;;14.44;67.10
47716;BME280;33476;50.984;3.538;2023-03-23T03:21:12;100227.91;;;14.40;67.21
47716;BME280;33476;50.984;3.538;2023-03-23T03:23:40;100226.00;;;14.42;67.11
47716;BME280;33476;50.984;3.538;2023-03-23T03:26:11;100227.69;;;14.43;67.25
47716;BME280;33476;50.984;3.538;2023-03-23T03:28:37;100227.69;;;14.43;67.16
47716;BME280;33476;50.984;3.538;2023-03-23T03:31:04;100223.38;;;14.42;67.18
47716;BME280;33476;50.984;3.538;2023-03-23T03:33:31;100219.81;;;14.43;66.78
47716;BME280;33476;50.984;3.538;2023-03-23T03:35:59;100224.66;;;14.37;67.05
47716;BME280;33476;50.984;3.538;2023-03-23T03:38:25;100235.16;;;14.37;67.25
47716;BME280;33476;50.984;3.538;2023-03-23T03:40:54;100229.69;;;14.40;66.96
47716;BME280;33476;50.984;3.538;2023-03-23T03:43:19;100236.53;;;14.42;66.79
47716;BME280;33476;50.984;3.538;2023-03-23T03:45:44;100250.16;;;14.47;66.95
47716;BME280;33476;50.984;3.538;2023-03-23T03:48:10;100240.81;;;14.43;66.70
47716;BME280;33476;50.984;3.538;2023-03-23T03:50:35;100240.81;;;14.43;66.97
47716;BME280;33476;50.984;3.538;2023-03-23T03:53:01;100247.03;;;14.42;66.99
47716;BME280;33476;50.984;3.538;2023-03-23T03:55:26;100234.00;;;14.41;66.80
47716;BME280;33476;50.984;3.538;2023-03-23T03:57:53;100242.81;;;14.40;66.71
47716;BME280;33476;50.984;3.538;2023-03-23T04:00:20;100237.47;;;14.41;66.66
47716;BME280;33476;50.984;3.538;2023-03-23T04:02:48;100240.41;;;14.37;66.62
47716;BME280;33476;50.984;3.538;2023-03-23T04:05:16;100246.63;;;14.36;66.53
47716;BME280;33476;50.984;3.538;2023-03-23T04:07:41;100243.88;;;14.37;66.76
47716;BME280;33476;50.984;3.538;2023-03-23T04:10:09;100245.69;;;14.37;66.59
47716;BME280;33476;50.984;3.538;2023-03-23T04:12:36;100249.13;;;14.37;66.67
47716;BME280;33476;50.984;3.538;2023-03-23T04:15:03;100258.56;;;14.40;66.59
47716;BME280;33476;50.984;3.538;2023-03-23T04:17:29;100260.28;;;14.41;66.42
47716;BME280;33476;50.984;3.538;2023-03-23T04:19:55;100254.06;;;14.42;66.27
47716;BME280;33476;50.984;3.538;2023-03-23T04:22:23;100251.44;;;14.42;66.21
47716;BME280;33476;50.984;3.538;2023-03-23T04:24:50;100258.50;;;14.41;66.21
47716;BME280;33476;50.984;3.538;2023-03-23T04:27:16;100252.41;;;14.41;66.34
47716;BME280;33476;50.984;3.538;2023-03-23T04:29:42;100247.47;;;14.36;66.40
47716;BME280;33476;50.984;3.538;2023-03-23T04:32:07;100251.56;;;14.40;66.34
47716;BME280;33476;50.984;3.538;2023-03-23T04:34:32;100251.66;;;14.39;66.42
47716;BME280;33476;50.984;3.538;2023-03-23T04:37:00;100243.06;;;14.37;66.63
47716;BME280;33476;50.984;3.538;2023-03-23T04:39:25;100252.94;;;14.33;66.95
47716;BME280;33476;50.984;3.538;2023-03-23T04:41:54;100257.56;;;14.29;67.07
47716;BME280;33476;50.984;3.538;2023-03-23T04:44:19;100249.81;;;14.28;67.30
47716;BME280;33476;50.984;3.538;2023-03-23T04:46:46;100250.66;;;14.28;67.43
47716;BME280;33476;50.984;3.538;2023-03-23T04:49:15;100262.81;;;14.29;67.51
47716;BME280;33476;50.984;3.538;2023-03-23T04:51:46;100261.38;;;14.25;67.68
47716;BME280;33476;50.984;3.538;2023-03-23T04:54:11;100266.97;;;14.21;67.96
47716;BME280;33476;50.984;3.538;2023-03-23T04:56:37;100262.06;;;14.16;67.97
47716;BME280;33476;50.984;3.538;2023-03-23T04:59:03;100250.72;;;14.16;68.33
47716;BME280;33476;50.984;3.538;2023-03-23T05:01:28;100263.19;;;14.12;68.36
47716;BME280;33476;50.984;3.538;2023-03-23T05:03:54;100268.47;;;14.12;68.52
47716;BME280;33476;50.984;3.538;2023-03-23T05:06:19;100269.41;;;14.11;68.42
47716;BME280;33476;50.984;3.538;2023-03-23T05:08:45;100264.16;;;14.11;68.72
47716;BME280;33476;50.984;3.538;2023-03-23T05:11:10;100280.13;;;14.08;69.21
47716;BME280;33476;50.984;3.538;2023-03-23T05:13:37;100278.91;;;14.01;69.59
47716;BME280;33476;50.984;3.538;2023-03-23T05:16:05;100280.88;;;13.97;69.73
47716;BME280;33476;50.984;3.538;2023-03-23T05:18:31;100285.41;;;13.95;70.39
47716;BME280;33476;50.984;3.538;2023-03-23T05:21:01;100295.19;;;13.93;70.48
47716;BME280;33476;50.984;3.538;2023-03-23T05:23:27;100290.88;;;13.92;70.67
47716;BME280;33476;50.984;3.538;2023-03-23T05:25:56;100290.03;;;13.92;71.05
47716;BME280;33476;50.984;3.538;2023-03-23T05:28:28;100303.28;;;13.90;70.75
47716;BME280;33476;50.984;3.538;2023-03-23T05:30:55;100318.09;;;13.91;70.46
47716;BME280;33476;50.984;3.538;2023-03-23T05:33:21;100320.91;;;13.88;70.69
47716;BME280;33476;50.984;3.538;2023-03-23T05:35:47;100322.91;;;13.85;70.47
47716;BME280;33476;50.984;3.538;2023-03-23T05:38:13;100327.63;;;13.80;70.62
47716;BME280;33476;50.984;3.538;2023-03-23T05:40:39;100329.94;;;13.71;70.97
47716;BME280;33476;50.984;3.538;2023-03-23T05:43:06;100333.94;;;13.64;71.05
47716;BME280;33476;50.984;3.538;2023-03-23T05:45:32;100332.47;;;13.60;70.97
47716;BME280;33476;50.984;3.538;2023-03-23T05:47:57;100331.81;;;13.57;70.72
47716;BME280;33476;50.984;3.538;2023-03-23T05:50:22;100329.81;;;13.47;70.94
47716;BME280;33476;50.984;3.538;2023-03-23T05:52:47;100332.88;;;13.41;70.67
47716;BME280;33476;50.984;3.538;2023-03-23T05:55:13;100342.31;;;13.44;70.50
47716;BME280;33476;50.984;3.538;2023-03-23T05:57:40;100339.81;;;13.42;70.33
47716;BME280;33476;50.984;3.538;2023-03-23T06:00:06;100351.75;;;13.34;70.06
47716;BME280;33476;50.984;3.538;2023-03-23T06:02:45;100345.75;;;13.32;70.15
47716;BME280;33476;50.984;3.538;2023-03-23T06:05:11;100348.16;;;13.22;70.44
47716;BME280;33476;50.984;3.538;2023-03-23T06:07:36;100354.53;;;13.18;70.15
47716;BME280;33476;50.984;3.538;2023-03-23T06:10:06;100346.78;;;13.16;70.15
47716;BME280;33476;50.984;3.538;2023-03-23T06:12:32;100343.38;;;13.14;70.17
47716;BME280;33476;50.984;3.538;2023-03-23T06:14:57;100341.72;;;13.13;69.96
47716;BME280;33476;50.984;3.538;2023-03-23T06:17:24;100350.41;;;13.14;70.04
47716;BME280;33476;50.984;3.538;2023-03-23T06:19:49;100345.28;;;13.12;70.13
47716;BME280;33476;50.984;3.538;2023-03-23T06:22:16;100356.81;;;13.10;70.03
47716;BME280;33476;50.984;3.538;2023-03-23T06:24:41;100350.91;;;13.06;70.40
47716;BME280;33476;50.984;3.538;2023-03-23T06:27:07;100360.66;;;13.04;70.20
47716;BME280;33476;50.984;3.538;2023-03-23T06:29:34;100363.19;;;13.06;70.03
47716;BME280;33476;50.984;3.538;2023-03-23T06:32:01;100361.50;;;13.05;70.09
47716;BME280;33476;50.984;3.538;2023-03-23T06:34:27;100372.72;;;13.07;70.19
47716;BME280;33476;50.984;3.538;2023-03-23T06:36:53;100378.06;;;13.05;69.91
47716;BME280;33476;50.984;3.538;2023-03-23T06:39:18;100375.16;;;13.10;69.80
47716;BME280;33476;50.984;3.538;2023-03-23T06:41:44;100383.88;;;13.10;69.45
47716;BME280;33476;50.984;3.538;2023-03-23T06:44:09;100393.81;;;13.05;69.52
47716;BME280;33476;50.984;3.538;2023-03-23T06:46:39;100386.88;;;13.04;69.72
47716;BME280;33476;50.984;3.538;2023-03-23T06:49:05;100371.81;;;13.08;69.40
47716;BME280;33476;50.984;3.538;2023-03-23T06:51:30;100366.66;;;13.06;69.66
47716;BME280;33476;50.984;3.538;2023-03-23T06:53:56;100368.44;;;13.06;69.30
47716;BME280;33476;50.984;3.538;2023-03-23T06:56:23;100380.50;;;13.08;69.48
47716;BME280;33476;50.984;3.538;2023-03-23T06:58:48;100386.38;;;13.12;69.32
47716;BME280;33476;50.984;3.538;2023-03-23T07:01:13;100382.94;;;13.11;69.15
47716;BME280;33476;50.984;3.538;2023-03-23T07:03:40;100374.22;;;13.11;69.27
47716;BME280;33476;50.984;3.538;2023-03-23T07:06:07;100372.53;;;13.10;69.57
47716;BME280;33476;50.984;3.538;2023-03-23T07:08:33;100373.50;;;13.09;69.15
47716;BME280;33476;50.984;3.538;2023-03-23T07:10:58;100377.78;;;13.10;69.60
47716;BME280;33476;50.984;3.538;2023-03-23T07:13:24;100382.72;;;13.14;69.02
47716;BME280;33476;50.984;3.538;2023-03-23T07:15:50;100381.59;;;13.18;68.92
47716;BME280;33476;50.984;3.538;2023-03-23T07:18:16;100388.44;;;13.21;69.07
47716;BME280;33476;50.984;3.538;2023-03-23T07:20:41;100388.72;;;13.16;69.22
47716;BME280;33476;50.984;3.538;2023-03-23T07:23:07;100381.78;;;13.15;69.28
47716;BME280;33476;50.984;3.538;2023-03-23T07:25:33;100392.56;;;13.11;69.84
47716;BME280;33476;50.984;3.538;2023-03-23T07:28:02;100392.34;;;13.01;70.38
47716;BME280;33476;50.984;3.538;2023-03-23T07:30:28;100385.22;;;13.03;69.95
47716;BME280;33476;50.984;3.538;2023-03-23T07:32:58;100367.59;;;13.05;70.48
47716;BME280;33476;50.984;3.538;2023-03-23T07:35:24;100370.75;;;13.10;70.31
47716;BME280;33476;50.984;3.538;2023-03-23T07:37:50;100381.59;;;13.18;70.08
47716;BME280;33476;50.984;3.538;2023-03-23T07:40:17;100385.53;;;13.26;69.58
47716;BME280;33476;50.984;3.538;2023-03-23T07:42:51;100391.63;;;13.26;69.94
47716;BME280;33476;50.984;3.538;2023-03-23T07:45:17;100391.72;;;13.25;69.86
47716;BME280;33476;50.984;3.538;2023-03-23T07:47:42;100404.00;;;13.24;70.42
47716;BME280;33476;50.984;3.538;2023-03-23T07:50:08;100398.31;;;13.30;70.04
47716;BME280;33476;50.984;3.538;2023-03-23T07:52:35;100405.78;;;13.36;69.69
47716;BME280;33476;50.984;3.538;2023-03-23T07:55:01;100402.00;;;13.40;69.87
47716;BME280;33476;50.984;3.538;2023-03-23T07:57:28;100411.16;;;13.47;69.38
47716;BME280;33476;50.984;3.538;2023-03-23T07:59:54;100414.44;;;13.64;69.06
47716;BME280;33476;50.984;3.538;2023-03-23T08:02:19;100411.75;;;13.78;68.71
47716;BME280;33476;50.984;3.538;2023-03-23T08:04:44;100405.66;;;13.90;68.13
47716;BME280;33476;50.984;3.538;2023-03-23T08:07:10;100412.47;;;14.05;67.91
47716;BME280;33476;50.984;3.538;2023-03-23T08:09:37;100407.34;;;14.17;67.68
47716;BME280;33476;50.984;3.538;2023-03-23T08:12:04;100411.72;;;14.29;67.46
47716;BME280;33476;50.984;3.538;2023-03-23T08:14:29;100420.63;;;14.39;67.33
47716;BME280;33476;50.984;3.538;2023-03-23T08:16:55;100424.25;;;14.51;66.94
47716;BME280;33476;50.984;3.538;2023-03-23T08:19:21;100419.06;;;14.62;66.54
47716;BME280;33476;50.984;3.538;2023-03-23T08:21:47;100420.81;;;14.74;66.26
47716;BME280;33476;50.984;3.538;2023-03-23T08:24:13;100417.94;;;14.90;65.99
47716;BME280;33476;50.984;3.538;2023-03-23T08:26:39;100417.03;;;15.02;65.64
47716;BME280;33476;50.984;3.538;2023-03-23T08:29:05;100419.97;;;15.22;65.60
47716;BME280;33476;50.984;3.538;2023-03-23T08:31:31;100431.41;;;15.33;65.46
47716;BME280;33476;50.984;3.538;2023-03-23T08:33:58;100420.19;;;15.42;65.12
47716;BME280;33476;50.984;3.538;2023-03-23T08:36:23;100420.59;;;15.49;63.88
47716;BME280;33476;50.984;3.538;2023-03-23T08:38:49;100421.91;;;15.55;64.02
47716;BME280;33476;50.984;3.538;2023-03-23T08:41:16;100424.50;;;15.67;63.69
47716;BME280;33476;50.984;3.538;2023-03-23T08:43:42;100421.41;;;15.73;62.84
47716;BME280;33476;50.984;3.538;2023-03-23T08:46:09;100423.31;;;15.71;62.98
47716;BME280;33476;50.984;3.538;2023-03-23T08:48:36;100433.47;;;15.65;63.14
47716;BME280;33476;50.984;3.538;2023-03-23T08:51:04;100436.13;;;15.65;63.23
47716;BME280;33476;50.984;3.538;2023-03-23T08:53:30;100448.22;;;15.79;62.64
47716;BME280;33476;50.984;3.538;2023-03-23T08:55:56;100421.94;;;15.90;62.52
47716;BME280;33476;50.984;3.538;2023-03-23T08:58:27;100430.34;;;16.06;62.18
47716;BME280;33476;50.984;3.538;2023-03-23T09:00:53;100431.75;;;16.10;61.95
47716;BME280;33476;50.984;3.538;2023-03-23T09:03:18;100440.16;;;16.15;61.65
47716;BME280;33476;50.984;3.538;2023-03-23T09:05:44;100440.28;;;16.14;61.68
47716;BME280;33476;50.984;3.538;2023-03-23T09:08:11;100435.59;;;16.17;61.52
47716;BME280;33476;50.984;3.538;2023-03-23T09:10:37;100435.72;;;16.27;61.35
47716;BME280;33476;50.984;3.538;2023-03-23T09:13:05;100444.84;;;16.34;61.47
47716;BME280;33476;50.984;3.538;2023-03-23T09:15:32;100448.88;;;16.38;60.84
47716;BME280;33476;50.984;3.538;2023-03-23T09:17:58;100433.94;;;16.39;61.25
47716;BME280;33476;50.984;3.538;2023-03-23T09:20:26;100425.63;;;16.54;60.99
47716;BME280;33476;50.984;3.538;2023-03-23T09:22:53;100439.31;;;16.71;60.27
47716;BME280;33476;50.984;3.538;2023-03-23T09:25:23;100436.06;;;16.78;59.60
47716;BME280;33476;50.984;3.538;2023-03-23T09:27:59;100429.00;;;16.90;59.79
47716;BME280;33476;50.984;3.538;2023-03-23T09:30:27;100424.50;;;17.02;59.59
47716;BME280;33476;50.984;3.538;2023-03-23T09:32:54;100405.69;;;17.06;59.24
47716;BME280;33476;50.984;3.538;2023-03-23T09:35:20;100429.44;;;17.06;59.64
47716;BME280;33476;50.984;3.538;2023-03-23T09:37:47;100441.88;;;17.16;59.36
47716;BME280;33476;50.984;3.538;2023-03-23T09:40:17;100444.13;;;17.20;59.16
47716;BME280;33476;50.984;3.538;2023-03-23T09:50:55;100437.66;;;16.70;60.13
47716;BME280;33476;50.984;3.538;2023-03-23T09:53:29;100427.84;;;16.72;60.07
47716;BME280;33476;50.984;3.538;2023-03-23T09:56:01;100435.50;;;16.75;59.76
47716;BME280;33476;50.984;3.538;2023-03-23T09:58:33;100436.31;;;16.64;59.70
47716;BME280;33476;50.984;3.538;2023-03-23T10:01:07;100439.31;;;16.71;60.11
47716;BME280;33476;50.984;3.538;2023-03-23T10:03:40;100450.56;;;16.62;59.98
47716;BME280;33476;50.984;3.538;2023-03-23T10:06:12;100448.31;;;16.57;60.06
47716;BME280;33476;50.984;3.538;2023-03-23T10:08:47;100452.38;;;16.50;60.02
47716;BME280;33476;50.984;3.538;2023-03-23T10:11:30;100446.38;;;16.37;59.84
47716;BME280;33476;50.984;3.538;2023-03-23T10:14:28;100459.19;;;16.30;59.99
47716;BME280;33476;50.984;3.538;2023-03-23T10:17:20;100440.66;;;16.32;60.40
47716;BME280;33476;50.984;3.538;2023-03-23T10:22:51;100455.00;;;16.16;59.96
47716;BME280;33476;50.984;3.538;2023-03-23T10:25:22;100444.47;;;16.16;59.92
47716;BME280;33476;50.984;3.538;2023-03-23T10:28:17;100452.38;;;16.16;60.20
47716;BME280;33476;50.984;3.538;2023-03-23T10:30:48;100446.84;;;16.19;60.01
47716;BME280;33476;50.984;3.538;2023-03-23T10:33:29;100444.34;;;16.07;60.52
47716;BME280;33476;50.984;3.538;2023-03-23T10:36:07;100452.09;;;15.97;61.28
47716;BME280;33476;50.984;3.538;2023-03-23T10:38:38;100460.84;;;15.97;62.25
47716;BME280;33476;50.984;3.538;2023-03-23T10:41:13;100465.16;;;15.98;62.77
47716;BME280;33476;50.984;3.538;2023-03-23T10:43:39;100465.03;;;16.00;63.42
47716;BME280;33476;50.984;3.538;2023-03-23T10:48:56;100471.91;;;16.14;64.47
47716;BME280;33476;50.984;3.538;2023-03-23T10:51:31;100453.22;;;16.17;64.91
47716;BME280;33476;50.984;3.538;2023-03-23T10:54:01;100458.00;;;16.23;65.32
47716;BME280;33476;50.984;3.538;2023-03-23T10:58:52;100445.88;;;16.20;65.17
47716;BME280;33476;50.984;3.538;2023-03-23T11:01:19;100446.97;;;16.29;64.20
47716;BME280;33476;50.984;3.538;2023-03-23T11:03:48;100431.53;;;16.24;64.43
47716;BME280;33476;50.984;3.538;2023-03-23T11:06:26;100436.09;;;16.22;64.22
47716;BME280;33476;50.984;3.538;2023-03-23T11:09:08;100440.53;;;16.33;63.44
47716;BME280;33476;50.984;3.538;2023-03-23T11:11:40;100451.53;;;16.38;62.47
47716;BME280;33476;50.984;3.538;2023-03-23T11:14:32;100448.91;;;16.27;62.21
47716;BME280;33476;50.984;3.538;2023-03-23T11:17:03;100445.66;;;16.35;62.20
47716;BME280;33476;50.984;3.538;2023-03-23T11:19:34;100441.47;;;16.21;61.79
47716;BME280;33476;50.984;3.538;2023-03-23T11:24:41;100433.56;;;15.98;62.69
47716;BME280;33476;50.984;3.538;2023-03-23T11:27:08;100445.06;;;15.97;63.03
47716;BME280;33476;50.984;3.538;2023-03-23T11:29:36;100430.91;;;15.98;63.41
47716;BME280;33476;50.984;3.538;2023-03-23T11:32:09;100424.91;;;15.96;63.43
47716;BME280;33476;50.984;3.538;2023-03-23T11:34:41;100434.75;;;16.28;63.52
47716;BME280;33476;50.984;3.538;2023-03-23T11:37:19;100434.28;;;16.45;63.14
47716;BME280;33476;50.984;3.538;2023-03-23T11:39:53;100440.41;;;16.57;63.12
47716;BME280;33476;50.984;3.538;2023-03-23T11:42:22;100438.34;;;16.61;63.18
47716;BME280;33476;50.984;3.538;2023-03-23T11:44:48;100449.03;;;16.59;63.11
47716;BME280;33476;50.984;3.538;2023-03-23T11:47:35;100446.28;;;16.49;63.29
47716;BME280;33476;50.984;3.538;2023-03-23T11:53:02;100447.22;;;16.71;62.88
47716;BME280;33476;50.984;3.538;2023-03-23T11:58:17;100439.19;;;16.83;62.86
47716;BME280;33476;50.984;3.538;2023-03-23T12:00:54;100419.50;;;16.88;62.29
47716;BME280;33476;50.984;3.538;2023-03-23T12:03:20;100423.09;;;16.98;61.66
47716;BME280;33476;50.984;3.538;2023-03-23T12:06:05;100414.84;;;16.91;62.23
47716;BME280;33476;50.984;3.538;2023-03-23T12:11:56;100423.63;;;16.69;60.90
47716;BME280;33476;50.984;3.538;2023-03-23T12:14:41;100427.22;;;16.57;60.58
47716;BME280;33476;50.984;3.538;2023-03-23T12:17:20;100411.88;;;16.51;60.12
47716;BME280;33476;50.984;3.538;2023-03-23T12:20:09;100412.00;;;16.49;59.92
47716;BME280;33476;50.984;3.538;2023-03-23T12:23:06;100419.91;;;16.49;59.88
47716;BME280;33476;50.984;3.538;2023-03-23T12:25:43;100444.47;;;16.50;59.71
47716;BME280;33476;50.984;3.538;2023-03-23T12:34:10;100443.25;;;16.88;58.77
47716;BME280;33476;50.984;3.538;2023-03-23T12:44:54;100469.59;;;17.10;57.94
47716;BME280;33476;50.984;3.538;2023-03-23T12:47:42;100471.25;;;17.11;58.29
47716;BME280;33476;50.984;3.538;2023-03-23T12:53:17;100469.47;;;17.44;57.18
47716;BME280;33476;50.984;3.538;2023-03-23T12:55:46;100462.25;;;17.57;56.62
47716;BME280;33476;50.984;3.538;2023-03-23T12:58:21;100451.41;;;17.71;56.82
47716;BME280;33476;50.984;3.538;2023-03-23T13:00:54;100447.06;;;17.91;56.22
47716;BME280;33476;50.984;3.538;2023-03-23T13:03:42;100438.03;;;17.93;56.09
47716;BME280;33476;50.984;3.538;2023-03-23T13:06:29;100444.94;;;17.85;55.46
47716;BME280;33476;50.984;3.538;2023-03-23T13:08:57;100443.09;;;17.76;55.13
47716;BME280;33476;50.984;3.538;2023-03-23T13:11:37;100435.38;;;17.52;55.03
47716;BME280;33476;50.984;3.538;2023-03-23T13:19:44;100430.91;;;17.31;54.93
47716;BME280;33476;50.984;3.538;2023-03-23T13:22:27;100417.38;;;17.25;54.49
47716;BME280;33476;50.984;3.538;2023-03-23T13:25:00;100428.63;;;17.27;54.77
47716;BME280;33476;50.984;3.538;2023-03-23T13:27:26;100439.75;;;17.41;54.86
47716;BME280;33476;50.984;3.538;2023-03-23T13:29:54;100437.63;;;17.56;55.27
47716;BME280;33476;50.984;3.538;2023-03-23T13:32:30;100420.56;;;17.72;55.12
47716;BME280;33476;50.984;3.538;2023-03-23T13:34:56;100428.19;;;17.75;55.17
47716;BME280;33476;50.984;3.538;2023-03-23T13:37:24;100423.78;;;17.64;54.85
47716;BME280;33476;50.984;3.538;2023-03-23T13:40:11;100418.50;;;17.64;54.67
47716;BME280;33476;50.984;3.538;2023-03-23T13:42:52;100413.47;;;17.72;54.38
47716;BME280;33476;50.984;3.538;2023-03-23T13:48:24;100385.03;;;17.85;54.33
47716;BME280;33476;50.984;3.538;2023-03-23T13:50:52;100378.16;;;18.04;54.27
47716;BME280;33476;50.984;3.538;2023-03-23T13:53:28;100378.69;;;17.98;54.68
47716;BME280;33476;50.984;3.538;2023-03-23T13:56:35;100388.81;;;17.92;55.21
47716;BME280;33476;50.984;3.538;2023-03-23T13:59:07;100395.13;;;18.01;55.50
47716;BME280;33476;50.984;3.538;2023-03-23T14:01:36;100388.63;;;18.05;55.61
47716;BME280;33476;50.984;3.538;2023-03-23T14:04:06;100393.59;;;17.99;55.26
47716;BME280;33476;50.984;3.538;2023-03-23T14:06:35;100385.84;;;17.86;55.28
47716;BME280;33476;50.984;3.538;2023-03-23T14:09:13;100395.25;;;17.79;56.18
47716;BME280;33476;50.984;3.538;2023-03-23T14:12:28;100386.25;;;17.81;56.24
47716;BME280;33476;50.984;3.538;2023-03-23T14:15:02;100381.69;;;17.83;55.85
47716;BME280;33476;50.984;3.538;2023-03-23T14:17:39;100378.72;;;17.77;56.11
47716;BME280;33476;50.984;3.538;2023-03-23T14:20:06;100384.88;;;17.66;56.08
47716;BME280;33476;50.984;3.538;2023-03-23T14:22:33;100390.81;;;17.58;56.47